createdAt,value
2022-12-16T00:00:40.664Z,41.30
2022-12-16T00:03:07.260Z,41.30
2022-12-16T00:05:33.749Z,41.30
2022-12-16T00:08:00.240Z,41.20
2022-12-16T00:10:26.736Z,41.30
2022-12-16T00:12:53.195Z,41.20
2022-12-16T00:15:21.582Z,41.30
2022-12-16T00:17:48.051Z,41.20
2022-12-16T00:20:14.500Z,41.30
2022-12-16T00:22:40.981Z,41.30
2022-12-16T00:25:07.437Z,41.20
2022-12-16T00:27:33.926Z,41.20
2022-12-16T00:30:00.390Z,41.10
2022-12-16T00:32:26.862Z,41.10
2022-12-16T00:34:53.318Z,41.00
2022-12-16T00:37:21.431Z,40.90
2022-12-16T00:39:47.901Z,40.90
2022-12-16T00:42:14.368Z,41.10
2022-12-16T00:44:40.848Z,41.10
2022-12-16T00:47:07.308Z,41.00
2022-12-16T00:49:34.226Z,41.00
2022-12-16T00:52:00.685Z,41.00
2022-12-16T00:54:27.169Z,40.90
2022-12-16T00:56:53.621Z,41.00
2022-12-16T00:59:20.348Z,40.90
2022-12-16T01:01:47.015Z,41.00
2022-12-16T01:04:13.579Z,40.90
2022-12-16T01:06:40.055Z,40.90
2022-12-16T01:09:06.517Z,40.90
2022-12-16T01:11:32.987Z,40.80
2022-12-16T01:13:59.439Z,40.80
2022-12-16T01:16:27.081Z,40.90
2022-12-16T01:18:53.617Z,40.90
2022-12-16T01:21:21.884Z,40.90
2022-12-16T01:23:48.356Z,40.90
2022-12-16T01:26:14.832Z,40.80
2022-12-16T01:28:41.274Z,40.90
2022-12-16T01:31:07.755Z,40.90
2022-12-16T01:33:34.582Z,40.90
2022-12-16T01:36:01.414Z,40.80
2022-12-16T01:38:27.871Z,40.70
2022-12-16T01:40:55.071Z,40.80
2022-12-16T01:43:21.780Z,40.60
2022-12-16T01:45:48.280Z,40.90
2022-12-16T01:48:14.806Z,40.80
2022-12-16T01:50:41.421Z,40.80
2022-12-16T01:53:07.900Z,40.80
2022-12-16T01:55:34.357Z,40.70
2022-12-16T01:58:00.825Z,40.70
2022-12-16T02:00:27.294Z,40.70
2022-12-16T02:02:53.892Z,40.60
2022-12-16T02:05:20.485Z,40.70
2022-12-16T02:07:46.975Z,40.70
2022-12-16T02:10:13.489Z,40.70
2022-12-16T02:12:39.954Z,40.60
2022-12-16T02:15:06.433Z,40.60
2022-12-16T02:17:32.891Z,40.60
2022-12-16T02:19:59.341Z,40.60
2022-12-16T02:22:25.811Z,40.60
2022-12-16T02:24:52.250Z,40.60
2022-12-16T02:27:18.750Z,40.70
2022-12-16T02:29:45.230Z,40.60
2022-12-16T02:32:11.721Z,40.60
2022-12-16T02:34:38.169Z,40.50
2022-12-16T02:37:04.629Z,40.60
2022-12-16T02:39:31.092Z,40.50
2022-12-16T02:41:57.558Z,40.50
2022-12-16T02:44:24.037Z,40.60
2022-12-16T02:46:50.500Z,40.60
2022-12-16T02:49:17.048Z,40.60
2022-12-16T02:51:43.506Z,40.60
2022-12-16T02:54:09.968Z,40.60
2022-12-16T02:56:36.461Z,40.50
2022-12-16T02:59:02.917Z,40.50
2022-12-16T03:01:29.490Z,40.50
2022-12-16T03:03:56.025Z,40.50
2022-12-16T03:06:22.512Z,40.50
2022-12-16T03:08:48.999Z,40.40
2022-12-16T03:11:15.479Z,40.50
2022-12-16T03:13:41.947Z,40.40
2022-12-16T03:16:08.423Z,40.50
2022-12-16T03:18:34.867Z,40.50
2022-12-16T03:21:01.344Z,40.50
2022-12-16T03:23:27.798Z,40.40
2022-12-16T03:25:54.283Z,40.40
2022-12-16T03:28:20.737Z,40.40
2022-12-16T03:30:47.256Z,40.30
2022-12-16T03:33:13.753Z,40.40
2022-12-16T03:35:40.234Z,40.30
2022-12-16T03:38:06.674Z,40.40
2022-12-16T03:40:33.151Z,40.40
2022-12-16T03:42:59.610Z,40.40
2022-12-16T03:45:26.066Z,40.30
2022-12-16T03:47:52.531Z,40.50
2022-12-16T03:50:18.986Z,40.50
2022-12-16T03:52:45.450Z,40.40
2022-12-16T03:55:11.913Z,40.30
2022-12-16T03:57:38.378Z,40.30
2022-12-16T04:00:04.850Z,40.40
2022-12-16T04:02:31.423Z,40.40
2022-12-16T04:04:58.029Z,40.40
2022-12-16T04:07:24.705Z,40.50
2022-12-16T04:09:51.366Z,40.40
2022-12-16T04:12:17.842Z,40.30
2022-12-16T04:14:47.742Z,40.20
2022-12-16T04:17:16.816Z,40.30
2022-12-16T04:19:43.264Z,40.30
2022-12-16T04:22:09.764Z,40.40
2022-12-16T04:24:36.223Z,40.30
2022-12-16T04:27:02.716Z,40.30
2022-12-16T04:29:29.174Z,40.30
2022-12-16T04:31:55.660Z,40.30
2022-12-16T04:34:22.129Z,40.30
2022-12-16T04:36:48.599Z,40.20
2022-12-16T04:39:15.050Z,40.20
2022-12-16T04:41:41.549Z,40.20
2022-12-16T04:44:08.038Z,40.20
2022-12-16T04:46:34.644Z,40.30
2022-12-16T04:49:01.171Z,40.20
2022-12-16T04:51:27.635Z,40.20
2022-12-16T04:53:54.088Z,40.10
2022-12-16T04:56:20.547Z,40.30
2022-12-16T04:58:47.018Z,40.30
2022-12-16T05:01:13.508Z,40.20
2022-12-16T05:03:40.063Z,40.30
2022-12-16T05:06:06.556Z,40.30
2022-12-16T05:08:33.014Z,40.30
2022-12-16T05:10:59.457Z,40.20
2022-12-16T05:13:25.923Z,40.10
2022-12-16T05:15:52.411Z,40.20
2022-12-16T05:18:18.910Z,40.20
2022-12-16T05:20:45.375Z,40.30
2022-12-16T05:23:11.876Z,40.20
2022-12-16T05:25:38.327Z,40.30
2022-12-16T05:28:04.810Z,40.30
2022-12-16T05:30:33.811Z,40.30
2022-12-16T05:33:00.562Z,40.10
2022-12-16T05:35:26.970Z,40.10
2022-12-16T05:37:53.429Z,40.10
2022-12-16T05:40:19.907Z,40.00
2022-12-16T05:42:46.386Z,40.00
2022-12-16T05:45:12.843Z,40.10
2022-12-16T05:47:39.340Z,40.00
2022-12-16T05:50:05.785Z,40.00
2022-12-16T05:52:32.256Z,39.90
2022-12-16T05:54:58.720Z,40.00
2022-12-16T05:57:25.190Z,39.90
2022-12-16T05:59:51.640Z,39.80
2022-12-16T06:02:19.066Z,39.80
2022-12-16T06:04:45.633Z,39.80
2022-12-16T06:07:12.094Z,40.60
2022-12-16T06:09:38.567Z,39.80
2022-12-16T06:12:05.012Z,39.80
2022-12-16T06:14:31.468Z,39.70
2022-12-16T06:16:57.992Z,39.70
2022-12-16T06:19:24.471Z,39.80
2022-12-16T06:21:50.920Z,39.80
2022-12-16T06:24:17.395Z,39.80
2022-12-16T06:26:43.855Z,39.80
2022-12-16T06:29:10.334Z,39.70
2022-12-16T06:31:36.820Z,39.70
2022-12-16T06:34:03.327Z,39.80
2022-12-16T06:36:29.775Z,39.80
2022-12-16T06:38:56.233Z,39.80
2022-12-16T06:41:22.682Z,39.70
2022-12-16T06:43:49.156Z,39.80
2022-12-16T06:46:15.647Z,39.60
2022-12-16T06:48:42.189Z,39.60
2022-12-16T06:51:08.668Z,39.60
2022-12-16T06:53:35.445Z,39.60
2022-12-16T06:56:02.118Z,39.60
2022-12-16T06:58:28.575Z,39.60
2022-12-16T07:00:55.119Z,39.60
2022-12-16T07:03:21.979Z,39.60
2022-12-16T07:05:48.468Z,39.70
2022-12-16T07:08:14.944Z,39.60
2022-12-16T07:10:41.432Z,39.60
2022-12-16T07:13:07.888Z,39.60
2022-12-16T07:15:34.342Z,39.60
2022-12-16T07:18:00.789Z,39.60
2022-12-16T07:20:27.261Z,39.60
2022-12-16T07:23:02.441Z,39.60
2022-12-16T07:25:34.176Z,39.60
2022-12-16T07:28:00.644Z,39.70
2022-12-16T07:30:27.124Z,39.60
2022-12-16T07:32:53.584Z,39.60
2022-12-16T07:35:20.039Z,39.60
2022-12-16T07:37:46.503Z,39.60
2022-12-16T07:40:12.989Z,39.60
2022-12-16T07:42:39.463Z,39.60
2022-12-16T07:45:05.956Z,39.50
2022-12-16T07:47:32.414Z,39.60
2022-12-16T07:49:58.899Z,39.60
2022-12-16T07:52:25.355Z,39.60
2022-12-16T07:54:51.833Z,39.60
2022-12-16T07:57:19.289Z,39.50
2022-12-16T07:59:45.787Z,39.50
2022-12-16T08:02:12.314Z,39.50
2022-12-16T08:04:38.858Z,39.40
2022-12-16T08:07:05.341Z,39.50
2022-12-16T08:09:31.814Z,39.40
2022-12-16T08:11:58.279Z,39.40
2022-12-16T08:14:24.731Z,39.40
2022-12-16T08:16:51.274Z,39.30
2022-12-16T08:19:17.750Z,39.30
2022-12-16T08:21:44.238Z,39.90
2022-12-16T08:24:10.702Z,39.40
2022-12-16T08:26:37.172Z,39.30
2022-12-16T08:29:27.195Z,39.30
2022-12-16T08:31:50.080Z,39.40
2022-12-16T08:34:16.524Z,39.30
2022-12-16T08:36:42.991Z,39.40
2022-12-16T08:39:09.463Z,39.30
2022-12-16T08:41:35.929Z,39.20
2022-12-16T08:44:02.391Z,39.40
2022-12-16T08:46:28.949Z,39.40
2022-12-16T08:48:55.440Z,39.40
2022-12-16T08:51:22.364Z,39.20
2022-12-16T08:53:48.823Z,39.30
2022-12-16T08:56:15.308Z,39.40
2022-12-16T08:58:41.773Z,39.30
2022-12-16T09:01:08.364Z,39.40
2022-12-16T09:03:35.284Z,39.40
2022-12-16T09:06:02.029Z,39.40
2022-12-16T09:08:28.499Z,39.40
2022-12-16T09:10:55.198Z,39.40
2022-12-16T09:13:21.765Z,39.50
2022-12-16T09:15:48.252Z,39.50
2022-12-16T09:18:14.803Z,39.60
2022-12-16T09:20:41.264Z,39.60
2022-12-16T09:23:07.740Z,39.60
2022-12-16T09:25:34.192Z,39.60
2022-12-16T09:28:00.673Z,39.60
2022-12-16T09:30:27.121Z,39.70
2022-12-16T09:32:53.612Z,39.90
2022-12-16T09:35:20.889Z,39.80
2022-12-16T09:37:47.355Z,39.90
2022-12-16T09:40:13.804Z,40.00
2022-12-16T09:42:40.264Z,39.90
2022-12-16T09:45:06.729Z,40.00
2022-12-16T09:47:33.212Z,40.10
2022-12-16T09:49:59.677Z,40.80
2022-12-16T09:52:26.165Z,40.10
2022-12-16T09:54:52.611Z,40.10
2022-12-16T09:57:19.200Z,40.30
2022-12-16T09:59:45.655Z,40.20
2022-12-16T10:02:12.286Z,40.40
2022-12-16T10:04:38.864Z,40.30
2022-12-16T10:07:05.315Z,40.30
2022-12-16T10:09:31.765Z,40.40
2022-12-16T10:11:58.249Z,40.30
2022-12-16T10:14:24.712Z,40.50
2022-12-16T10:16:51.167Z,40.40
2022-12-16T10:19:18.151Z,40.60
2022-12-16T10:21:44.609Z,40.70
2022-12-16T10:24:11.081Z,40.60
2022-12-16T10:26:37.547Z,40.70
2022-12-16T10:29:04.026Z,40.80
2022-12-16T10:31:31.860Z,40.80
2022-12-16T10:33:58.506Z,41.10
2022-12-16T10:36:24.976Z,41.00
2022-12-16T10:38:51.450Z,41.20
2022-12-16T10:41:19.341Z,41.30
2022-12-16T10:43:45.832Z,41.50
2022-12-16T10:46:12.379Z,41.50
2022-12-16T10:48:42.394Z,41.50
2022-12-16T10:51:14.314Z,41.60
2022-12-16T10:53:40.795Z,41.50
2022-12-16T10:56:07.245Z,41.40
2022-12-16T10:58:35.598Z,41.50
2022-12-16T11:01:02.372Z,41.50
2022-12-16T11:03:28.968Z,41.60
2022-12-16T11:05:56.018Z,41.60
2022-12-16T11:08:22.587Z,42.30
2022-12-16T11:10:49.065Z,41.80
2022-12-16T11:13:15.518Z,41.80
2022-12-16T11:15:42.450Z,41.90
2022-12-16T11:18:09.131Z,41.90
2022-12-16T11:20:35.623Z,41.90
2022-12-16T11:23:02.110Z,42.10
2022-12-16T11:25:28.585Z,42.20
2022-12-16T11:27:55.050Z,42.10
2022-12-16T11:30:22.299Z,42.20
2022-12-16T11:32:48.764Z,42.20
2022-12-16T11:35:15.242Z,42.40
2022-12-16T11:37:41.708Z,42.30
2022-12-16T11:40:08.204Z,42.50
2022-12-16T11:42:35.286Z,42.60
2022-12-16T11:45:01.802Z,42.40
2022-12-16T11:47:28.261Z,42.50
2022-12-16T11:49:54.795Z,42.50
2022-12-16T11:52:36.520Z,42.50
2022-12-16T11:55:03.593Z,42.50
2022-12-16T11:57:30.059Z,42.70
2022-12-16T11:59:56.517Z,42.50
2022-12-16T12:02:23.076Z,42.60
2022-12-16T12:04:49.609Z,42.80
2022-12-16T12:07:16.077Z,42.70
2022-12-16T12:09:42.518Z,42.60
2022-12-16T12:12:08.976Z,42.50
2022-12-16T12:14:35.442Z,42.50
2022-12-16T12:17:01.900Z,42.80
2022-12-16T12:19:28.357Z,42.80
2022-12-16T12:21:54.926Z,42.70
2022-12-16T12:24:22.575Z,42.80
2022-12-16T12:26:49.042Z,42.90
2022-12-16T12:29:15.490Z,43.00
2022-12-16T12:31:42.063Z,42.90
2022-12-16T12:34:08.579Z,42.90
2022-12-16T12:36:38.014Z,42.80
2022-12-16T12:39:04.754Z,42.90
2022-12-16T12:41:31.233Z,42.90
2022-12-16T12:43:57.685Z,43.00
2022-12-16T12:46:24.209Z,42.90
2022-12-16T12:48:54.381Z,43.00
2022-12-16T12:51:23.830Z,43.10
2022-12-16T12:53:50.272Z,43.10
2022-12-16T12:56:16.770Z,43.20
2022-12-16T12:58:43.234Z,43.30
2022-12-16T13:01:09.783Z,43.20
2022-12-16T13:03:36.642Z,43.20
2022-12-16T13:06:03.474Z,43.30
2022-12-16T13:08:29.946Z,43.20
2022-12-16T13:10:56.398Z,43.10
2022-12-16T13:13:23.029Z,43.30
2022-12-16T13:15:49.491Z,43.30
2022-12-16T13:18:15.999Z,43.40
2022-12-16T13:20:42.463Z,43.40
2022-12-16T13:23:08.931Z,43.40
2022-12-16T13:25:35.409Z,43.40
2022-12-16T13:28:01.927Z,43.40
2022-12-16T13:30:28.417Z,43.40
2022-12-16T13:32:54.893Z,43.30
2022-12-16T13:35:21.339Z,43.60
2022-12-16T13:37:47.805Z,43.50
2022-12-16T13:40:14.262Z,43.60
2022-12-16T13:42:40.738Z,43.70
2022-12-16T13:45:07.185Z,43.70
2022-12-16T13:47:33.623Z,43.60
2022-12-16T13:50:00.114Z,43.50
2022-12-16T13:52:26.609Z,43.60
2022-12-16T13:54:53.060Z,43.60
2022-12-16T13:57:19.546Z,43.70
2022-12-16T13:59:46.066Z,43.80
2022-12-16T14:02:12.591Z,43.90
2022-12-16T14:04:39.080Z,43.90
2022-12-16T14:07:05.542Z,43.90
2022-12-16T14:09:31.998Z,43.90
2022-12-16T14:11:58.456Z,43.90
2022-12-16T14:14:24.917Z,43.90
2022-12-16T14:16:51.415Z,43.90
2022-12-16T14:19:17.906Z,43.90
2022-12-16T14:21:44.378Z,43.90
2022-12-16T14:24:10.866Z,43.80
2022-12-16T14:26:37.317Z,43.80
2022-12-16T14:29:03.789Z,43.90
2022-12-16T14:31:30.360Z,43.90
2022-12-16T14:33:56.915Z,44.20
2022-12-16T14:36:23.356Z,44.30
2022-12-16T14:38:49.806Z,44.10
2022-12-16T14:41:16.248Z,44.00
2022-12-16T14:43:42.727Z,44.00
2022-12-16T14:46:09.378Z,44.10
2022-12-16T14:48:35.967Z,44.10
2022-12-16T14:51:02.416Z,44.10
2022-12-16T14:53:28.882Z,44.40
2022-12-16T14:55:55.347Z,44.30
2022-12-16T14:58:21.822Z,44.20
2022-12-16T15:00:48.339Z,44.30
2022-12-16T15:03:15.140Z,44.20
2022-12-16T15:05:41.770Z,44.10
2022-12-16T15:08:08.236Z,44.20
2022-12-16T15:10:35.644Z,44.30
2022-12-16T15:13:02.095Z,44.40
2022-12-16T15:15:28.569Z,44.40
2022-12-16T15:17:55.027Z,44.30
2022-12-16T15:20:21.509Z,44.30
2022-12-16T15:22:47.969Z,44.30
2022-12-16T15:25:14.464Z,44.30
2022-12-16T15:27:40.919Z,44.40
2022-12-16T15:30:07.374Z,44.30
2022-12-16T15:32:33.830Z,44.30
2022-12-16T15:35:00.335Z,44.30
2022-12-16T15:37:26.790Z,44.30
2022-12-16T15:39:53.287Z,44.40
2022-12-16T15:42:19.750Z,44.60
2022-12-16T15:44:46.223Z,44.60
2022-12-16T15:47:12.677Z,44.50
2022-12-16T15:49:39.129Z,44.30
2022-12-16T15:52:05.598Z,44.40
2022-12-16T15:54:32.155Z,44.60
2022-12-16T15:56:58.629Z,44.40
2022-12-16T15:59:25.093Z,44.50
2022-12-16T16:01:51.651Z,44.60
2022-12-16T16:04:18.216Z,44.50
2022-12-16T16:06:44.838Z,44.40
2022-12-16T16:09:11.304Z,44.30
2022-12-16T16:11:37.788Z,44.30
2022-12-16T16:14:08.314Z,44.30
2022-12-16T16:16:38.798Z,44.40
2022-12-16T16:19:05.257Z,44.40
2022-12-16T16:21:31.731Z,44.40
2022-12-16T16:23:58.173Z,44.30
2022-12-16T16:26:24.608Z,44.30
2022-12-16T16:28:51.080Z,44.40
2022-12-16T16:31:17.615Z,44.30
2022-12-16T16:33:44.109Z,44.40
2022-12-16T16:36:10.604Z,44.30
2022-12-16T16:38:37.067Z,44.20
2022-12-16T16:41:03.539Z,44.30
2022-12-16T16:43:30.097Z,44.20
2022-12-16T16:45:56.744Z,44.40
2022-12-16T16:48:23.205Z,44.30
2022-12-16T16:50:49.671Z,44.20
2022-12-16T16:53:16.125Z,44.20
2022-12-16T16:55:42.613Z,44.20
2022-12-16T16:58:09.065Z,44.20
2022-12-16T17:00:35.632Z,44.20
2022-12-16T17:03:02.406Z,44.20
2022-12-16T17:05:29.033Z,44.20
2022-12-16T17:07:55.506Z,44.30
2022-12-16T17:10:21.985Z,44.20
2022-12-16T17:12:48.438Z,44.10
2022-12-16T17:15:14.918Z,44.10
2022-12-16T17:17:41.383Z,44.10
2022-12-16T17:20:07.865Z,44.00
2022-12-16T17:22:34.328Z,44.00
2022-12-16T17:25:00.803Z,44.10
2022-12-16T17:27:27.280Z,44.00
2022-12-16T17:29:53.758Z,44.20
2022-12-16T17:32:20.235Z,44.20
2022-12-16T17:34:46.687Z,44.10
2022-12-16T17:37:13.168Z,44.00
2022-12-16T17:39:39.641Z,44.00
2022-12-16T17:42:06.107Z,44.00
2022-12-16T17:44:32.574Z,43.90
2022-12-16T17:46:59.132Z,44.00
2022-12-16T17:49:25.659Z,43.90
2022-12-16T17:51:52.152Z,43.90
2022-12-16T17:54:24.953Z,43.80
2022-12-16T17:56:52.751Z,43.70
2022-12-16T17:59:19.206Z,43.70
2022-12-16T18:01:45.790Z,43.80
2022-12-16T18:04:12.418Z,43.90
2022-12-16T18:06:38.984Z,43.90
2022-12-16T18:09:05.436Z,43.90
2022-12-16T18:11:37.148Z,43.90
2022-12-16T18:14:05.150Z,44.00
2022-12-16T18:16:31.714Z,44.20
2022-12-16T18:18:58.231Z,44.30
2022-12-16T18:21:24.688Z,44.20
2022-12-16T18:23:51.145Z,44.10
2022-12-16T18:26:17.623Z,44.20
2022-12-16T18:28:44.067Z,44.10
2022-12-16T18:31:10.634Z,44.10
2022-12-16T18:33:37.388Z,44.10
2022-12-16T18:36:03.984Z,44.00
2022-12-16T18:38:30.466Z,44.10
2022-12-16T18:40:56.969Z,44.00
2022-12-16T18:43:23.419Z,44.00
2022-12-16T18:45:49.957Z,44.00
2022-12-16T18:48:16.451Z,44.00
2022-12-16T18:50:42.923Z,44.00
2022-12-16T18:53:09.383Z,44.00
2022-12-16T18:55:35.979Z,44.00
2022-12-16T18:58:02.438Z,44.00
2022-12-16T19:00:28.984Z,43.90
2022-12-16T19:02:55.529Z,44.00
2022-12-16T19:05:22.063Z,43.90
2022-12-16T19:07:48.555Z,44.00
2022-12-16T19:10:15.021Z,44.00
2022-12-16T19:12:41.452Z,44.10
2022-12-16T19:15:07.901Z,44.20
2022-12-16T19:17:34.368Z,44.20
2022-12-16T19:20:00.837Z,44.10
2022-12-16T19:22:27.306Z,44.10
2022-12-16T19:24:54.951Z,44.10
2022-12-16T19:27:22.892Z,44.10
2022-12-16T19:29:49.370Z,44.10
2022-12-16T19:32:15.991Z,44.10
2022-12-16T19:34:42.566Z,44.20
2022-12-16T19:37:09.044Z,44.30
2022-12-16T19:39:36.242Z,44.20
2022-12-16T19:42:02.726Z,44.20
2022-12-16T19:44:29.211Z,44.20
2022-12-16T19:52:28.593Z,44.20
2022-12-16T19:54:55.054Z,44.20
2022-12-16T19:57:22.679Z,44.20
2022-12-16T19:59:49.152Z,44.10
2022-12-16T20:02:15.814Z,44.10
2022-12-16T20:04:42.386Z,44.30
2022-12-16T20:07:09.467Z,44.20
2022-12-16T20:09:35.989Z,44.10
2022-12-16T20:12:02.471Z,44.20
2022-12-16T20:14:28.935Z,44.20
2022-12-16T20:16:55.430Z,44.10
2022-12-16T20:19:23.199Z,44.10
2022-12-16T20:21:54.742Z,44.10
2022-12-16T20:24:22.928Z,44.10
2022-12-16T20:26:49.409Z,44.20
2022-12-16T20:29:15.882Z,44.10
2022-12-16T20:31:42.353Z,44.20
2022-12-16T20:34:08.837Z,44.10
2022-12-16T20:36:35.874Z,44.10
2022-12-16T20:39:02.380Z,44.30
2022-12-16T20:41:28.862Z,44.30
2022-12-16T20:43:55.345Z,44.30
2022-12-16T20:46:22.845Z,44.30
2022-12-16T20:48:49.330Z,44.30
2022-12-16T20:51:18.544Z,44.40
2022-12-16T20:53:47.656Z,44.30
2022-12-16T20:56:14.132Z,44.30
2022-12-16T20:58:40.646Z,44.20
2022-12-16T21:01:07.103Z,44.30
2022-12-16T21:03:33.594Z,44.40
2022-12-16T21:06:00.081Z,44.30
2022-12-16T21:08:26.580Z,44.50
2022-12-16T21:10:56.200Z,44.60
2022-12-16T21:13:22.873Z,44.50
2022-12-16T21:15:49.316Z,44.40
2022-12-16T21:18:15.826Z,44.30
2022-12-16T21:20:42.328Z,44.30
2022-12-16T21:23:08.785Z,45.00
2022-12-16T21:25:35.986Z,44.40
2022-12-16T21:28:02.445Z,44.50
2022-12-16T21:30:28.918Z,44.40
2022-12-16T21:32:55.441Z,44.60
2022-12-16T21:35:23.203Z,44.50
2022-12-16T21:37:49.663Z,44.40
2022-12-16T21:40:16.129Z,44.50
2022-12-16T21:45:29.038Z,44.60
2022-12-16T21:47:56.036Z,44.40
2022-12-16T21:50:22.552Z,44.50
2022-12-16T21:52:49.022Z,44.50
2022-12-16T21:55:15.496Z,44.50
2022-12-16T21:57:42.020Z,44.50
2022-12-16T22:00:08.490Z,44.50
2022-12-16T22:02:35.127Z,44.50
2022-12-16T22:05:01.579Z,44.50
2022-12-16T22:07:28.060Z,44.50
2022-12-16T22:09:54.510Z,44.50
2022-12-16T22:12:22.820Z,44.60
2022-12-16T22:14:49.278Z,44.60
2022-12-16T22:17:15.778Z,44.70
2022-12-16T22:19:42.300Z,44.70
2022-12-16T22:22:08.756Z,44.70
2022-12-16T22:24:35.978Z,44.80
2022-12-16T22:27:02.518Z,44.80
2022-12-16T22:29:29.010Z,44.80
2022-12-16T22:31:55.468Z,44.80
2022-12-16T22:34:22.901Z,44.90
2022-12-16T22:36:20.247Z,44.20
2022-12-16T22:36:49.367Z,44.90
2022-12-16T22:39:15.872Z,44.80
2022-12-16T22:41:42.332Z,45.00
2022-12-16T22:44:08.776Z,45.00
2022-12-16T22:46:36.190Z,45.00
2022-12-16T22:49:02.683Z,44.90
2022-12-16T22:51:29.165Z,44.90
2022-12-16T22:53:55.613Z,45.00
2022-12-16T22:56:22.940Z,44.90
2022-12-16T22:58:49.444Z,44.80
2022-12-16T23:01:15.910Z,44.90
2022-12-16T23:03:42.927Z,45.10
2022-12-16T23:06:09.789Z,45.00
2022-12-16T23:08:36.259Z,45.00
2022-12-16T23:11:02.724Z,44.90
2022-12-16T23:13:29.195Z,45.10
2022-12-16T23:15:56.518Z,45.00
2022-12-16T23:18:23.151Z,45.00
2022-12-16T23:20:49.620Z,45.10
2022-12-16T23:23:16.118Z,45.00
2022-12-16T23:25:42.552Z,45.00
2022-12-16T23:28:09.044Z,44.90
2022-12-16T23:30:36.091Z,45.00
2022-12-16T23:33:02.560Z,45.00
2022-12-16T23:35:29.029Z,45.00
2022-12-16T23:37:55.496Z,45.00
2022-12-16T23:40:22.684Z,45.00
2022-12-16T23:42:49.152Z,45.00
2022-12-16T23:45:15.638Z,45.10
2022-12-16T23:47:42.098Z,45.10
2022-12-16T23:50:14.067Z,45.20
2022-12-16T23:52:42.361Z,45.20
2022-12-16T23:55:08.847Z,45.20
2022-12-16T23:57:36.250Z,45.20
